Campbell, Alabama
Current Conditions -  °F | °C
As of 2:55 PM on Saturday 22 Nov 2014 (Local Time) from KDYA Reporting Station
Broken Clouds Broken Clouds  
Wind Chill: 69°   Ceiling: 4400
Heat Index: 69°   Visibility: 10mi
Dew Point: 49°   Wind: 3mph
Humidity: 50%   Direction: 90°E
Pressure: 30.13"   Gusts: NA
Location:  31.92°N, 87.98°W
Report Text: KDYA 222055Z AUTO 09003KT 10SM BKN044 20/10 A3013 RMK AO2 T02030095
Loading
Personal Weather Stations






























Interactive Weather Map New forecast layout! Learn more

10-Day Weather Forecast

Advertisements
Track Severe Weather on mobile